Clarksville, Delaware
Current Conditions -  °F | °C
As of 9:53 PM on Wednesday 22 Oct 2014 (Local Time) from KOXB Reporting Station
Overcast Overcast  
Wind Chill: 53°   Ceiling: 1200
Heat Index: 53°   Visibility: 9mi
Dew Point: 50°   Wind: 12mph
Humidity: 89%   Direction: 330°NNW
Pressure: 29.79"   Gusts: 25mph
Location:  38.5606°N, 75.0865°W
Report Text: KOXB 230153Z AUTO 33010G22KT 9SM BKN012 OVC018 12/10 A2979 RMK AO2 RAE53 SLP088 P0000 T01170100 TSNO
Loading
Personal Weather Stations






























Interactive Weather Map
Tropical Storm Tracking
New forecast layout! Learn more

10-Day Weather Forecast

Advertisements
Track Severe Weather on mobile